sensor_id;sensor_type;location;lat;lon;timestamp;P1;durP1;ratioP1;P2;durP2;ratioP2
572;SDS011;271;51.114;13.780;2022-10-16T00:00:04;22.30;;;8.33;;
572;SDS011;271;51.114;13.780;2022-10-16T00:02:32;22.10;;;7.33;;
572;SDS011;271;51.114;13.780;2022-10-16T00:04:59;22.87;;;7.40;;
572;SDS011;271;51.114;13.780;2022-10-16T00:07:26;20.93;;;7.37;;
572;SDS011;271;51.114;13.780;2022-10-16T00:09:54;20.70;;;6.83;;
572;SDS011;271;51.114;13.780;2022-10-16T00:12:25;20.10;;;6.93;;
572;SDS011;271;51.114;13.780;2022-10-16T00:14:52;19.60;;;6.30;;
572;SDS011;271;51.114;13.780;2022-10-16T00:17:20;20.30;;;7.00;;
572;SDS011;271;51.114;13.780;2022-10-16T00:19:47;21.87;;;7.70;;
572;SDS011;271;51.114;13.780;2022-10-16T00:22:14;20.50;;;6.47;;
572;SDS011;271;51.114;13.780;2022-10-16T00:24:44;20.87;;;7.50;;
572;SDS011;271;51.114;13.780;2022-10-16T00:27:12;19.10;;;5.73;;
572;SDS011;271;51.114;13.780;2022-10-16T00:29:40;20.47;;;6.93;;
572;SDS011;271;51.114;13.780;2022-10-16T00:32:07;20.77;;;7.30;;
572;SDS011;271;51.114;13.780;2022-10-16T00:34:35;21.13;;;6.70;;
572;SDS011;271;51.114;13.780;2022-10-16T00:37:02;22.33;;;6.60;;
572;SDS011;271;51.114;13.780;2022-10-16T00:39:29;20.53;;;6.40;;
572;SDS011;271;51.114;13.780;2022-10-16T00:41:57;20.57;;;6.80;;
572;SDS011;271;51.114;13.780;2022-10-16T00:44:48;18.73;;;5.80;;
572;SDS011;271;51.114;13.780;2022-10-16T00:47:19;19.80;;;6.20;;
572;SDS011;271;51.114;13.780;2022-10-16T00:49:51;19.53;;;6.10;;
572;SDS011;271;51.114;13.780;2022-10-16T00:52:22;21.10;;;6.93;;
572;SDS011;271;51.114;13.780;2022-10-16T00:54:50;20.00;;;6.27;;
572;SDS011;271;51.114;13.780;2022-10-16T00:57:20;20.03;;;6.93;;
572;SDS011;271;51.114;13.780;2022-10-16T00:59:49;21.83;;;6.73;;
572;SDS011;271;51.114;13.780;2022-10-16T01:02:17;20.03;;;6.30;;
572;SDS011;271;51.114;13.780;2022-10-16T01:04:45;19.90;;;6.17;;
572;SDS011;271;51.114;13.780;2022-10-16T01:07:18;22.37;;;7.03;;
572;SDS011;271;51.114;13.780;2022-10-16T01:09:53;20.60;;;7.10;;
572;SDS011;271;51.114;13.780;2022-10-16T01:12:33;19.80;;;6.57;;
572;SDS011;271;51.114;13.780;2022-10-16T01:15:10;21.57;;;7.23;;
572;SDS011;271;51.114;13.780;2022-10-16T01:17:45;20.23;;;6.07;;
572;SDS011;271;51.114;13.780;2022-10-16T01:20:20;20.70;;;7.13;;
572;SDS011;271;51.114;13.780;2022-10-16T01:23:03;20.70;;;6.90;;
572;SDS011;271;51.114;13.780;2022-10-16T01:25:39;22.37;;;8.20;;
572;SDS011;271;51.114;13.780;2022-10-16T01:28:34;21.00;;;8.10;;
572;SDS011;271;51.114;13.780;2022-10-16T01:31:05;21.43;;;8.67;;
572;SDS011;271;51.114;13.780;2022-10-16T01:33:35;20.60;;;7.57;;
572;SDS011;271;51.114;13.780;2022-10-16T01:36:07;20.17;;;6.87;;
572;SDS011;271;51.114;13.780;2022-10-16T01:38:38;20.67;;;7.40;;
572;SDS011;271;51.114;13.780;2022-10-16T01:41:08;21.50;;;7.27;;
572;SDS011;271;51.114;13.780;2022-10-16T01:43:42;20.70;;;7.30;;
572;SDS011;271;51.114;13.780;2022-10-16T01:46:13;22.03;;;6.73;;
572;SDS011;271;51.114;13.780;2022-10-16T01:48:42;22.70;;;9.10;;
572;SDS011;271;51.114;13.780;2022-10-16T01:51:10;19.93;;;6.63;;
572;SDS011;271;51.114;13.780;2022-10-16T01:53:40;22.07;;;8.00;;
572;SDS011;271;51.114;13.780;2022-10-16T01:56:11;20.60;;;6.90;;
572;SDS011;271;51.114;13.780;2022-10-16T01:58:42;21.07;;;7.10;;
572;SDS011;271;51.114;13.780;2022-10-16T02:01:13;20.27;;;6.93;;
572;SDS011;271;51.114;13.780;2022-10-16T02:03:44;21.20;;;7.57;;
572;SDS011;271;51.114;13.780;2022-10-16T02:06:17;19.90;;;6.60;;
572;SDS011;271;51.114;13.780;2022-10-16T02:08:44;20.07;;;6.33;;
572;SDS011;271;51.114;13.780;2022-10-16T02:11:11;20.40;;;6.30;;
572;SDS011;271;51.114;13.780;2022-10-16T02:13:39;20.20;;;6.07;;
572;SDS011;271;51.114;13.780;2022-10-16T02:16:12;20.87;;;5.67;;
572;SDS011;271;51.114;13.780;2022-10-16T02:18:40;20.23;;;6.23;;
572;SDS011;271;51.114;13.780;2022-10-16T02:21:12;20.60;;;6.60;;
572;SDS011;271;51.114;13.780;2022-10-16T02:23:45;19.97;;;6.60;;
572;SDS011;271;51.114;13.780;2022-10-16T02:26:19;19.80;;;6.30;;
572;SDS011;271;51.114;13.780;2022-10-16T02:28:55;20.47;;;6.30;;
572;SDS011;271;51.114;13.780;2022-10-16T02:31:27;20.13;;;7.03;;
572;SDS011;271;51.114;13.780;2022-10-16T02:33:59;20.03;;;6.73;;
572;SDS011;271;51.114;13.780;2022-10-16T02:36:28;20.03;;;6.40;;
572;SDS011;271;51.114;13.780;2022-10-16T02:38:56;19.80;;;5.80;;
572;SDS011;271;51.114;13.780;2022-10-16T02:41:24;19.90;;;6.83;;
572;SDS011;271;51.114;13.780;2022-10-16T02:43:52;19.70;;;6.20;;
572;SDS011;271;51.114;13.780;2022-10-16T02:46:21;19.90;;;5.70;;
572;SDS011;271;51.114;13.780;2022-10-16T02:48:49;19.20;;;6.00;;
572;SDS011;271;51.114;13.780;2022-10-16T02:51:16;20.43;;;6.77;;
572;SDS011;271;51.114;13.780;2022-10-16T02:53:43;20.17;;;6.40;;
572;SDS011;271;51.114;13.780;2022-10-16T02:56:10;21.30;;;6.77;;
572;SDS011;271;51.114;13.780;2022-10-16T02:58:38;20.33;;;6.37;;
572;SDS011;271;51.114;13.780;2022-10-16T03:01:05;19.40;;;6.03;;
572;SDS011;271;51.114;13.780;2022-10-16T03:03:33;21.70;;;7.20;;
572;SDS011;271;51.114;13.780;2022-10-16T03:06:00;20.13;;;6.87;;
572;SDS011;271;51.114;13.780;2022-10-16T03:08:28;19.90;;;6.13;;
572;SDS011;271;51.114;13.780;2022-10-16T03:10:55;20.27;;;6.47;;
572;SDS011;271;51.114;13.780;2022-10-16T03:13:22;20.37;;;6.73;;
572;SDS011;271;51.114;13.780;2022-10-16T03:15:50;20.60;;;7.20;;
572;SDS011;271;51.114;13.780;2022-10-16T03:18:17;20.63;;;6.87;;
572;SDS011;271;51.114;13.780;2022-10-16T03:20:45;19.93;;;6.37;;
572;SDS011;271;51.114;13.780;2022-10-16T03:23:13;20.13;;;6.30;;
572;SDS011;271;51.114;13.780;2022-10-16T03:25:40;19.50;;;5.87;;
572;SDS011;271;51.114;13.780;2022-10-16T03:28:07;19.27;;;5.93;;
572;SDS011;271;51.114;13.780;2022-10-16T03:30:34;20.40;;;6.77;;
572;SDS011;271;51.114;13.780;2022-10-16T03:33:01;19.90;;;6.53;;
572;SDS011;271;51.114;13.780;2022-10-16T03:35:29;21.73;;;7.03;;
572;SDS011;271;51.114;13.780;2022-10-16T03:37:57;21.70;;;7.93;;
572;SDS011;271;51.114;13.780;2022-10-16T03:40:25;20.97;;;7.33;;
572;SDS011;271;51.114;13.780;2022-10-16T03:42:52;20.90;;;7.57;;
572;SDS011;271;51.114;13.780;2022-10-16T03:45:20;21.50;;;7.37;;
572;SDS011;271;51.114;13.780;2022-10-16T03:47:47;20.00;;;6.60;;
572;SDS011;271;51.114;13.780;2022-10-16T03:50:15;19.40;;;6.07;;
572;SDS011;271;51.114;13.780;2022-10-16T03:52:42;20.50;;;7.03;;
572;SDS011;271;51.114;13.780;2022-10-16T03:55:11;19.93;;;6.67;;
572;SDS011;271;51.114;13.780;2022-10-16T03:57:38;20.40;;;6.67;;
572;SDS011;271;51.114;13.780;2022-10-16T04:00:06;20.70;;;7.00;;
572;SDS011;271;51.114;13.780;2022-10-16T04:02:33;20.90;;;7.30;;
572;SDS011;271;51.114;13.780;2022-10-16T04:05:01;21.50;;;7.17;;
572;SDS011;271;51.114;13.780;2022-10-16T04:07:28;19.80;;;6.67;;
572;SDS011;271;51.114;13.780;2022-10-16T04:09:55;21.93;;;6.60;;
572;SDS011;271;51.114;13.780;2022-10-16T04:12:25;21.27;;;6.60;;
572;SDS011;271;51.114;13.780;2022-10-16T04:14:53;20.80;;;6.10;;
572;SDS011;271;51.114;13.780;2022-10-16T04:17:20;20.50;;;6.43;;
572;SDS011;271;51.114;13.780;2022-10-16T04:19:47;22.60;;;7.27;;
572;SDS011;271;51.114;13.780;2022-10-16T04:22:14;23.47;;;8.40;;
572;SDS011;271;51.114;13.780;2022-10-16T04:24:42;20.80;;;6.57;;
572;SDS011;271;51.114;13.780;2022-10-16T04:27:09;24.00;;;7.53;;
572;SDS011;271;51.114;13.780;2022-10-16T04:29:37;20.50;;;6.53;;
572;SDS011;271;51.114;13.780;2022-10-16T04:32:05;20.60;;;7.00;;
572;SDS011;271;51.114;13.780;2022-10-16T04:34:34;22.23;;;7.00;;
572;SDS011;271;51.114;13.780;2022-10-16T04:37:03;21.70;;;7.53;;
572;SDS011;271;51.114;13.780;2022-10-16T04:39:30;22.00;;;7.20;;
572;SDS011;271;51.114;13.780;2022-10-16T04:41:57;22.27;;;7.37;;
572;SDS011;271;51.114;13.780;2022-10-16T04:44:25;20.60;;;6.87;;
572;SDS011;271;51.114;13.780;2022-10-16T04:46:53;20.50;;;6.60;;
572;SDS011;271;51.114;13.780;2022-10-16T04:49:20;21.27;;;6.80;;
572;SDS011;271;51.114;13.780;2022-10-16T04:51:48;20.67;;;6.63;;
572;SDS011;271;51.114;13.780;2022-10-16T04:54:15;22.30;;;7.93;;
572;SDS011;271;51.114;13.780;2022-10-16T04:56:42;21.20;;;7.70;;
572;SDS011;271;51.114;13.780;2022-10-16T04:59:12;21.20;;;7.03;;
572;SDS011;271;51.114;13.780;2022-10-16T05:01:40;21.93;;;6.80;;
572;SDS011;271;51.114;13.780;2022-10-16T05:04:09;21.50;;;6.87;;
572;SDS011;271;51.114;13.780;2022-10-16T05:06:36;21.50;;;7.20;;
572;SDS011;271;51.114;13.780;2022-10-16T05:09:05;22.30;;;7.70;;
572;SDS011;271;51.114;13.780;2022-10-16T05:11:32;21.43;;;7.50;;
572;SDS011;271;51.114;13.780;2022-10-16T05:14:00;21.73;;;7.23;;
572;SDS011;271;51.114;13.780;2022-10-16T05:16:27;21.90;;;7.43;;
572;SDS011;271;51.114;13.780;2022-10-16T05:18:55;22.13;;;7.33;;
572;SDS011;271;51.114;13.780;2022-10-16T05:21:24;22.80;;;8.57;;
572;SDS011;271;51.114;13.780;2022-10-16T05:23:52;21.67;;;7.90;;
572;SDS011;271;51.114;13.780;2022-10-16T05:26:20;25.00;;;9.77;;
572;SDS011;271;51.114;13.780;2022-10-16T05:28:48;24.47;;;10.50;;
572;SDS011;271;51.114;13.780;2022-10-16T05:31:16;24.33;;;9.77;;
572;SDS011;271;51.114;13.780;2022-10-16T05:33:43;24.03;;;9.93;;
572;SDS011;271;51.114;13.780;2022-10-16T05:36:10;23.00;;;9.10;;
572;SDS011;271;51.114;13.780;2022-10-16T05:38:40;24.00;;;10.10;;
572;SDS011;271;51.114;13.780;2022-10-16T05:41:07;22.70;;;8.77;;
572;SDS011;271;51.114;13.780;2022-10-16T05:43:34;23.53;;;9.53;;
572;SDS011;271;51.114;13.780;2022-10-16T05:46:02;22.77;;;8.90;;
572;SDS011;271;51.114;13.780;2022-10-16T05:48:31;26.33;;;10.23;;
572;SDS011;271;51.114;13.780;2022-10-16T05:50:59;24.63;;;10.13;;
572;SDS011;271;51.114;13.780;2022-10-16T05:53:28;24.70;;;10.90;;
572;SDS011;271;51.114;13.780;2022-10-16T05:55:57;23.90;;;10.10;;
572;SDS011;271;51.114;13.780;2022-10-16T05:58:28;26.03;;;10.37;;
572;SDS011;271;51.114;13.780;2022-10-16T06:00:56;24.03;;;9.77;;
572;SDS011;271;51.114;13.780;2022-10-16T06:03:25;23.60;;;9.23;;
572;SDS011;271;51.114;13.780;2022-10-16T06:05:52;22.50;;;8.43;;
572;SDS011;271;51.114;13.780;2022-10-16T06:08:20;22.70;;;8.63;;
572;SDS011;271;51.114;13.780;2022-10-16T06:10:49;22.13;;;8.67;;
572;SDS011;271;51.114;13.780;2022-10-16T06:13:27;21.70;;;8.00;;
572;SDS011;271;51.114;13.780;2022-10-16T06:15:56;21.40;;;8.57;;
572;SDS011;271;51.114;13.780;2022-10-16T06:18:24;24.87;;;9.73;;
572;SDS011;271;51.114;13.780;2022-10-16T06:20:52;22.90;;;8.10;;
572;SDS011;271;51.114;13.780;2022-10-16T06:23:20;23.60;;;9.60;;
572;SDS011;271;51.114;13.780;2022-10-16T06:25:47;23.27;;;9.40;;
572;SDS011;271;51.114;13.780;2022-10-16T06:28:16;22.50;;;8.83;;
572;SDS011;271;51.114;13.780;2022-10-16T06:30:43;23.13;;;8.87;;
572;SDS011;271;51.114;13.780;2022-10-16T06:33:11;23.60;;;9.33;;
572;SDS011;271;51.114;13.780;2022-10-16T06:35:38;25.53;;;9.63;;
572;SDS011;271;51.114;13.780;2022-10-16T06:38:05;21.40;;;8.17;;
572;SDS011;271;51.114;13.780;2022-10-16T06:40:33;22.57;;;8.40;;
572;SDS011;271;51.114;13.780;2022-10-16T06:43:00;22.30;;;8.50;;
572;SDS011;271;51.114;13.780;2022-10-16T06:45:28;24.90;;;9.70;;
572;SDS011;271;51.114;13.780;2022-10-16T06:47:55;23.03;;;9.20;;
572;SDS011;271;51.114;13.780;2022-10-16T06:50:23;23.30;;;9.33;;
572;SDS011;271;51.114;13.780;2022-10-16T06:52:50;23.40;;;9.60;;
572;SDS011;271;51.114;13.780;2022-10-16T06:55:17;23.50;;;9.70;;
572;SDS011;271;51.114;13.780;2022-10-16T06:57:46;24.17;;;9.17;;
572;SDS011;271;51.114;13.780;2022-10-16T07:00:14;22.10;;;8.50;;
572;SDS011;271;51.114;13.780;2022-10-16T07:02:42;22.80;;;9.40;;
572;SDS011;271;51.114;13.780;2022-10-16T07:05:10;22.10;;;8.47;;
572;SDS011;271;51.114;13.780;2022-10-16T07:07:37;22.70;;;9.13;;
572;SDS011;271;51.114;13.780;2022-10-16T07:10:04;24.30;;;9.20;;
572;SDS011;271;51.114;13.780;2022-10-16T07:12:32;22.63;;;9.17;;
572;SDS011;271;51.114;13.780;2022-10-16T07:14:59;24.10;;;9.80;;
572;SDS011;271;51.114;13.780;2022-10-16T07:17:26;25.80;;;10.73;;
572;SDS011;271;51.114;13.780;2022-10-16T07:19:55;22.43;;;8.97;;
572;SDS011;271;51.114;13.780;2022-10-16T07:22:22;21.93;;;8.70;;
572;SDS011;271;51.114;13.780;2022-10-16T07:24:49;21.20;;;7.90;;
572;SDS011;271;51.114;13.780;2022-10-16T07:27:17;20.80;;;7.43;;
572;SDS011;271;51.114;13.780;2022-10-16T07:29:44;20.57;;;7.60;;
572;SDS011;271;51.114;13.780;2022-10-16T07:32:11;20.80;;;7.60;;
572;SDS011;271;51.114;13.780;2022-10-16T07:34:38;20.67;;;7.90;;
572;SDS011;271;51.114;13.780;2022-10-16T07:37:07;22.07;;;7.97;;
572;SDS011;271;51.114;13.780;2022-10-16T07:39:34;20.00;;;6.57;;
572;SDS011;271;51.114;13.780;2022-10-16T07:42:01;21.67;;;8.17;;
572;SDS011;271;51.114;13.780;2022-10-16T07:44:29;24.93;;;10.13;;
572;SDS011;271;51.114;13.780;2022-10-16T07:46:56;25.50;;;10.47;;
572;SDS011;271;51.114;13.780;2022-10-16T07:49:23;37.27;;;18.40;;
572;SDS011;271;51.114;13.780;2022-10-16T07:51:51;34.87;;;16.70;;
572;SDS011;271;51.114;13.780;2022-10-16T07:54:19;24.50;;;10.37;;
572;SDS011;271;51.114;13.780;2022-10-16T07:56:46;21.30;;;7.97;;
572;SDS011;271;51.114;13.780;2022-10-16T07:59:14;19.63;;;6.67;;
572;SDS011;271;51.114;13.780;2022-10-16T08:01:41;21.13;;;6.77;;
572;SDS011;271;51.114;13.780;2022-10-16T08:04:08;20.47;;;6.83;;
572;SDS011;271;51.114;13.780;2022-10-16T08:06:36;20.47;;;6.67;;
572;SDS011;271;51.114;13.780;2022-10-16T08:09:05;19.13;;;6.30;;
572;SDS011;271;51.114;13.780;2022-10-16T08:11:34;19.70;;;6.80;;
572;SDS011;271;51.114;13.780;2022-10-16T08:14:01;19.53;;;5.90;;
572;SDS011;271;51.114;13.780;2022-10-16T08:16:29;20.10;;;5.47;;
572;SDS011;271;51.114;13.780;2022-10-16T08:18:56;17.30;;;4.80;;
572;SDS011;271;51.114;13.780;2022-10-16T08:21:23;17.53;;;4.07;;
572;SDS011;271;51.114;13.780;2022-10-16T08:23:51;18.10;;;4.70;;
572;SDS011;271;51.114;13.780;2022-10-16T08:26:20;18.03;;;4.30;;
572;SDS011;271;51.114;13.780;2022-10-16T08:28:50;17.73;;;4.07;;
572;SDS011;271;51.114;13.780;2022-10-16T08:31:17;17.10;;;3.93;;
572;SDS011;271;51.114;13.780;2022-10-16T08:33:45;16.80;;;3.60;;
572;SDS011;271;51.114;13.780;2022-10-16T08:36:13;16.93;;;3.67;;
572;SDS011;271;51.114;13.780;2022-10-16T08:38:42;17.57;;;4.10;;
572;SDS011;271;51.114;13.780;2022-10-16T08:41:16;16.97;;;3.50;;
572;SDS011;271;51.114;13.780;2022-10-16T08:44:03;17.83;;;3.90;;
572;SDS011;271;51.114;13.780;2022-10-16T08:46:47;16.90;;;3.40;;
572;SDS011;271;51.114;13.780;2022-10-16T08:49:20;16.53;;;3.10;;
572;SDS011;271;51.114;13.780;2022-10-16T08:51:50;16.17;;;3.40;;
572;SDS011;271;51.114;13.780;2022-10-16T08:54:21;16.53;;;3.20;;
572;SDS011;271;51.114;13.780;2022-10-16T08:56:55;16.50;;;2.93;;
572;SDS011;271;51.114;13.780;2022-10-16T08:59:24;16.33;;;3.20;;
572;SDS011;271;51.114;13.780;2022-10-16T09:01:51;16.07;;;2.90;;
572;SDS011;271;51.114;13.780;2022-10-16T09:07:18;15.33;;;2.50;;
572;SDS011;271;51.114;13.780;2022-10-16T09:09:56;16.60;;;2.93;;
572;SDS011;271;51.114;13.780;2022-10-16T09:12:33;15.37;;;2.20;;
572;SDS011;271;51.114;13.780;2022-10-16T09:15:16;15.67;;;2.30;;
572;SDS011;271;51.114;13.780;2022-10-16T09:17:53;16.20;;;2.90;;
572;SDS011;271;51.114;13.780;2022-10-16T09:20:28;15.20;;;2.70;;
572;SDS011;271;51.114;13.780;2022-10-16T09:23:07;15.00;;;2.53;;
572;SDS011;271;51.114;13.780;2022-10-16T09:25:43;15.03;;;2.40;;
572;SDS011;271;51.114;13.780;2022-10-16T09:28:13;15.60;;;2.57;;
572;SDS011;271;51.114;13.780;2022-10-16T09:30:42;15.17;;;2.83;;
572;SDS011;271;51.114;13.780;2022-10-16T09:33:10;15.43;;;2.80;;
572;SDS011;271;51.114;13.780;2022-10-16T09:35:40;15.63;;;2.93;;
572;SDS011;271;51.114;13.780;2022-10-16T09:38:20;14.90;;;2.90;;
572;SDS011;271;51.114;13.780;2022-10-16T09:40:48;15.50;;;3.10;;
572;SDS011;271;51.114;13.780;2022-10-16T09:43:19;15.80;;;3.73;;
572;SDS011;271;51.114;13.780;2022-10-16T09:45:58;15.40;;;3.47;;
572;SDS011;271;51.114;13.780;2022-10-16T09:48:27;16.07;;;4.10;;
572;SDS011;271;51.114;13.780;2022-10-16T09:50:58;16.17;;;3.70;;
572;SDS011;271;51.114;13.780;2022-10-16T09:53:27;16.27;;;3.43;;
572;SDS011;271;51.114;13.780;2022-10-16T09:56:09;19.60;;;4.30;;
572;SDS011;271;51.114;13.780;2022-10-16T09:58:41;18.50;;;5.40;;
572;SDS011;271;51.114;13.780;2022-10-16T10:01:14;17.10;;;4.10;;
572;SDS011;271;51.114;13.780;2022-10-16T10:03:42;24.00;;;7.23;;
572;SDS011;271;51.114;13.780;2022-10-16T10:06:17;16.07;;;4.13;;
572;SDS011;271;51.114;13.780;2022-10-16T10:11:51;15.83;;;3.73;;
572;SDS011;271;51.114;13.780;2022-10-16T10:14:21;15.63;;;3.40;;
572;SDS011;271;51.114;13.780;2022-10-16T10:17:01;15.60;;;3.70;;
572;SDS011;271;51.114;13.780;2022-10-16T10:19:39;15.73;;;3.10;;
572;SDS011;271;51.114;13.780;2022-10-16T10:22:18;14.90;;;2.60;;
572;SDS011;271;51.114;13.780;2022-10-16T10:25:00;15.40;;;2.50;;
572;SDS011;271;51.114;13.780;2022-10-16T10:27:43;14.87;;;2.50;;
572;SDS011;271;51.114;13.780;2022-10-16T10:30:18;14.70;;;2.40;;
572;SDS011;271;51.114;13.780;2022-10-16T10:32:53;15.20;;;2.87;;
572;SDS011;271;51.114;13.780;2022-10-16T10:35:36;15.20;;;2.50;;
572;SDS011;271;51.114;13.780;2022-10-16T10:38:16;19.23;;;4.20;;
572;SDS011;271;51.114;13.780;2022-10-16T10:40:57;14.90;;;2.30;;
572;SDS011;271;51.114;13.780;2022-10-16T10:43:39;14.80;;;2.47;;
572;SDS011;271;51.114;13.780;2022-10-16T10:46:18;15.57;;;2.13;;
572;SDS011;271;51.114;13.780;2022-10-16T10:49:01;14.63;;;1.63;;
572;SDS011;271;51.114;13.780;2022-10-16T10:51:54;13.87;;;1.03;;
572;SDS011;271;51.114;13.780;2022-10-16T10:54:28;14.63;;;1.37;;
572;SDS011;271;51.114;13.780;2022-10-16T10:57:02;14.20;;;1.17;;
572;SDS011;271;51.114;13.780;2022-10-16T10:59:39;14.83;;;1.03;;
572;SDS011;271;51.114;13.780;2022-10-16T11:02:18;15.00;;;1.10;;
572;SDS011;271;51.114;13.780;2022-10-16T11:04:57;13.87;;;1.00;;
572;SDS011;271;51.114;13.780;2022-10-16T11:07:45;14.03;;;1.10;;
572;SDS011;271;51.114;13.780;2022-10-16T11:10:17;14.17;;;1.10;;
572;SDS011;271;51.114;13.780;2022-10-16T11:12:49;16.10;;;2.10;;
572;SDS011;271;51.114;13.780;2022-10-16T11:15:19;14.90;;;1.10;;
572;SDS011;271;51.114;13.780;2022-10-16T11:17:52;14.33;;;1.20;;
572;SDS011;271;51.114;13.780;2022-10-16T11:20:24;13.87;;;1.00;;
572;SDS011;271;51.114;13.780;2022-10-16T11:22:54;14.40;;;1.10;;
572;SDS011;271;51.114;13.780;2022-10-16T11:25:25;14.40;;;1.07;;
572;SDS011;271;51.114;13.780;2022-10-16T11:27:55;14.27;;;1.10;;
572;SDS011;271;51.114;13.780;2022-10-16T11:30:28;14.10;;;1.07;;
572;SDS011;271;51.114;13.780;2022-10-16T11:33:01;14.07;;;1.10;;
572;SDS011;271;51.114;13.780;2022-10-16T11:35:41;14.70;;;1.00;;
572;SDS011;271;51.114;13.780;2022-10-16T11:38:15;14.37;;;1.00;;
572;SDS011;271;51.114;13.780;2022-10-16T11:40:50;16.00;;;0.90;;
572;SDS011;271;51.114;13.780;2022-10-16T11:43:25;14.03;;;1.10;;
572;SDS011;271;51.114;13.780;2022-10-16T11:45:55;13.87;;;0.90;;
572;SDS011;271;51.114;13.780;2022-10-16T11:48:30;14.70;;;1.20;;
572;SDS011;271;51.114;13.780;2022-10-16T11:51:05;14.03;;;0.90;;
572;SDS011;271;51.114;13.780;2022-10-16T11:53:40;13.97;;;1.00;;
572;SDS011;271;51.114;13.780;2022-10-16T11:56:12;14.80;;;0.90;;
572;SDS011;271;51.114;13.780;2022-10-16T11:58:45;14.40;;;0.97;;
572;SDS011;271;51.114;13.780;2022-10-16T12:01:20;14.30;;;1.00;;
572;SDS011;271;51.114;13.780;2022-10-16T12:03:58;15.27;;;1.00;;
572;SDS011;271;51.114;13.780;2022-10-16T12:06:40;13.90;;;0.90;;
572;SDS011;271;51.114;13.780;2022-10-16T12:09:13;14.27;;;0.93;;
572;SDS011;271;51.114;13.780;2022-10-16T12:11:47;14.17;;;1.10;;
572;SDS011;271;51.114;13.780;2022-10-16T12:14:19;14.13;;;1.10;;
572;SDS011;271;51.114;13.780;2022-10-16T12:16:52;13.73;;;0.97;;
572;SDS011;271;51.114;13.780;2022-10-16T12:19:21;14.00;;;0.93;;
572;SDS011;271;51.114;13.780;2022-10-16T12:21:51;14.00;;;1.00;;
572;SDS011;271;51.114;13.780;2022-10-16T12:24:26;14.13;;;1.20;;
572;SDS011;271;51.114;13.780;2022-10-16T12:27:00;13.83;;;1.03;;
572;SDS011;271;51.114;13.780;2022-10-16T12:29:31;14.33;;;1.10;;
572;SDS011;271;51.114;13.780;2022-10-16T12:32:02;15.50;;;1.20;;
572;SDS011;271;51.114;13.780;2022-10-16T12:34:32;14.90;;;1.27;;
572;SDS011;271;51.114;13.780;2022-10-16T12:37:10;14.60;;;1.30;;
572;SDS011;271;51.114;13.780;2022-10-16T12:39:40;14.17;;;1.20;;
572;SDS011;271;51.114;13.780;2022-10-16T12:42:19;14.13;;;1.20;;
572;SDS011;271;51.114;13.780;2022-10-16T12:44:49;14.07;;;1.17;;
572;SDS011;271;51.114;13.780;2022-10-16T12:47:21;14.37;;;1.20;;
572;SDS011;271;51.114;13.780;2022-10-16T12:49:50;14.07;;;1.30;;
572;SDS011;271;51.114;13.780;2022-10-16T12:52:27;14.27;;;1.10;;
572;SDS011;271;51.114;13.780;2022-10-16T12:55:01;17.53;;;1.60;;
572;SDS011;271;51.114;13.780;2022-10-16T12:57:34;15.30;;;1.20;;
572;SDS011;271;51.114;13.780;2022-10-16T13:00:13;14.03;;;1.07;;
572;SDS011;271;51.114;13.780;2022-10-16T13:08:57;14.33;;;1.10;;
572;SDS011;271;51.114;13.780;2022-10-16T13:11:41;14.07;;;1.00;;
572;SDS011;271;51.114;13.780;2022-10-16T13:14:33;14.80;;;1.27;;
572;SDS011;271;51.114;13.780;2022-10-16T13:17:21;14.37;;;0.90;;
572;SDS011;271;51.114;13.780;2022-10-16T13:19:59;14.50;;;1.30;;
572;SDS011;271;51.114;13.780;2022-10-16T13:22:40;13.97;;;1.10;;
572;SDS011;271;51.114;13.780;2022-10-16T13:25:22;13.97;;;1.10;;
572;SDS011;271;51.114;13.780;2022-10-16T13:27:57;14.37;;;1.20;;
572;SDS011;271;51.114;13.780;2022-10-16T13:30:27;14.17;;;1.20;;
572;SDS011;271;51.114;13.780;2022-10-16T13:32:58;14.90;;;1.10;;
572;SDS011;271;51.114;13.780;2022-10-16T13:35:28;14.53;;;0.90;;
572;SDS011;271;51.114;13.780;2022-10-16T13:38:03;15.13;;;1.27;;
572;SDS011;271;51.114;13.780;2022-10-16T13:40:52;14.27;;;1.07;;
572;SDS011;271;51.114;13.780;2022-10-16T13:43:22;14.20;;;1.10;;
572;SDS011;271;51.114;13.780;2022-10-16T13:45:52;14.17;;;1.13;;
572;SDS011;271;51.114;13.780;2022-10-16T13:48:21;14.00;;;1.23;;
572;SDS011;271;51.114;13.780;2022-10-16T13:50:57;14.07;;;1.10;;
572;SDS011;271;51.114;13.780;2022-10-16T13:53:26;13.90;;;1.00;;
572;SDS011;271;51.114;13.780;2022-10-16T13:55:55;13.87;;;1.00;;
572;SDS011;271;51.114;13.780;2022-10-16T13:58:23;14.03;;;1.10;;
572;SDS011;271;51.114;13.780;2022-10-16T14:00:53;14.23;;;1.10;;
572;SDS011;271;51.114;13.780;2022-10-16T14:03:23;15.57;;;1.20;;
572;SDS011;271;51.114;13.780;2022-10-16T14:05:52;13.97;;;1.20;;
572;SDS011;271;51.114;13.780;2022-10-16T14:08:22;16.23;;;1.30;;
572;SDS011;271;51.114;13.780;2022-10-16T14:10:52;14.10;;;1.07;;
572;SDS011;271;51.114;13.780;2022-10-16T14:13:26;14.17;;;1.10;;
572;SDS011;271;51.114;13.780;2022-10-16T14:16:00;14.07;;;1.33;;
572;SDS011;271;51.114;13.780;2022-10-16T14:18:32;14.87;;;1.43;;
572;SDS011;271;51.114;13.780;2022-10-16T14:21:03;14.20;;;1.20;;
572;SDS011;271;51.114;13.780;2022-10-16T14:23:33;14.33;;;1.27;;
572;SDS011;271;51.114;13.780;2022-10-16T14:26:11;15.20;;;1.30;;
572;SDS011;271;51.114;13.780;2022-10-16T14:28:40;14.90;;;1.30;;
572;SDS011;271;51.114;13.780;2022-10-16T14:31:22;14.17;;;1.17;;
572;SDS011;271;51.114;13.780;2022-10-16T14:33:55;14.97;;;1.70;;
572;SDS011;271;51.114;13.780;2022-10-16T14:36:23;15.30;;;1.63;;
572;SDS011;271;51.114;13.780;2022-10-16T14:38:55;21.27;;;1.73;;
572;SDS011;271;51.114;13.780;2022-10-16T14:41:27;15.70;;;1.20;;
572;SDS011;271;51.114;13.780;2022-10-16T14:43:56;15.10;;;1.30;;
572;SDS011;271;51.114;13.780;2022-10-16T14:46:28;16.30;;;1.60;;
572;SDS011;271;51.114;13.780;2022-10-16T14:49:00;15.53;;;1.47;;
572;SDS011;271;51.114;13.780;2022-10-16T14:51:30;15.70;;;1.40;;
572;SDS011;271;51.114;13.780;2022-10-16T14:53:57;15.40;;;1.30;;
572;SDS011;271;51.114;13.780;2022-10-16T14:56:24;14.90;;;1.60;;
572;SDS011;271;51.114;13.780;2022-10-16T14:58:55;16.33;;;2.93;;
572;SDS011;271;51.114;13.780;2022-10-16T15:01:23;17.27;;;1.90;;
572;SDS011;271;51.114;13.780;2022-10-16T15:03:51;16.50;;;2.10;;
572;SDS011;271;51.114;13.780;2022-10-16T15:06:20;16.77;;;1.90;;
572;SDS011;271;51.114;13.780;2022-10-16T15:08:48;15.90;;;1.80;;
572;SDS011;271;51.114;13.780;2022-10-16T15:11:15;15.40;;;2.10;;
572;SDS011;271;51.114;13.780;2022-10-16T15:13:46;16.23;;;2.30;;
572;SDS011;271;51.114;13.780;2022-10-16T15:16:14;15.07;;;1.60;;
572;SDS011;271;51.114;13.780;2022-10-16T15:18:42;15.80;;;1.73;;
572;SDS011;271;51.114;13.780;2022-10-16T15:21:11;15.13;;;1.90;;
572;SDS011;271;51.114;13.780;2022-10-16T15:23:48;16.23;;;1.70;;
572;SDS011;271;51.114;13.780;2022-10-16T15:26:16;15.07;;;1.87;;
572;SDS011;271;51.114;13.780;2022-10-16T15:28:43;16.23;;;1.97;;
572;SDS011;271;51.114;13.780;2022-10-16T15:31:12;15.23;;;1.80;;
572;SDS011;271;51.114;13.780;2022-10-16T15:33:39;16.00;;;2.17;;
572;SDS011;271;51.114;13.780;2022-10-16T15:36:06;16.40;;;2.00;;
572;SDS011;271;51.114;13.780;2022-10-16T15:38:34;15.83;;;1.90;;
572;SDS011;271;51.114;13.780;2022-10-16T15:41:02;16.30;;;1.83;;
572;SDS011;271;51.114;13.780;2022-10-16T15:43:29;17.10;;;2.03;;
572;SDS011;271;51.114;13.780;2022-10-16T15:46:00;15.43;;;1.90;;
572;SDS011;271;51.114;13.780;2022-10-16T15:48:30;17.03;;;1.60;;